PATL/TLJ METAR and TAF weather

Enter ICAO airport designator
Station Type Date Time Source
PATL METAR 2020/07/10 16:55 UTC NOAA

PATL 101655Z AUTO VRB03KT 10SM CLR 15/10 A2987 RMK AO2 SLP110 T01510096


Station Type Date Time Source
PATL Decoded METAR 2020/07/10 16:55 UTC NOAA

Takotna, Tatalina LRRS Airport, AK, United States (PATL) 62-54N 155-59W
Jul 10, 2020 - 12:55 PM EDT / 2020.07.10 1655 UTC
Wind: Variable at 3 MPH (3 KT):0
Visibility: 10 mile(s):0
Sky conditions: clear
Temperature: 59.2 F (15.1 C)
Dew Point: 49.3 F (9.6 C)
Relative Humidity: 69%
Pressure (altimeter): 29.87 in. Hg (1011 hPa)
ob: PATL 101655Z AUTO VRB03KT 10SM CLR 15/10 A2987 RMK AO2 SLP110 T01510096
cycle: 17

Station Type Date Time Source
PATL TAF 2012/01/12 14:06 UTC NOAA

TAF PATL 1214/1320 VRB06KT 9999 FEW050 SCT110 QNH2998INS TM26/1300Z TM32/1315Z

Example: see airport list